Time;durP1;ratioP1;P1;durP2;ratioP2;P2;SDS_P1;SDS_P2;PMS_P1;PMS_P2;Temp;Humidity;BMP_temperature;BMP_pressure;BME280_temperature;BME280_humidity;BME280_pressure;Samples;Min_cycle;Max_cycle;Signal;HPM_P1;HPM_P2
2023/04/08 00:00:34;;;;;;;;;;;10.70;99.90;;;;;;5101352;28;19966;-59
2023/04/08 00:03:00;;;;;;;;;;;10.70;99.90;;;;;;5100843;28;19912;-59
2023/04/08 00:05:26;;;;;;;;;;;10.70;99.90;;;;;;5101036;28;19912;-59
2023/04/08 00:07:51;;;;;;;;;;;10.70;99.90;;;;;;5101117;28;19914;-59
2023/04/08 00:10:17;;;;;;;;;;;10.70;99.90;;;;;;5100681;28;19908;-59
2023/04/08 00:12:43;;;;;;;;;;;10.60;99.90;;;;;;5083058;28;20305;-59
2023/04/08 00:15:08;;;;;;;;;;;10.60;99.90;;;;;;5100614;28;19995;-59
2023/04/08 00:17:34;;;;;;;;;;;10.70;99.90;;;;;;5100505;28;19967;-59
2023/04/08 00:20:00;;;;;;;;;;;10.60;99.90;;;;;;5100571;28;20291;-59
2023/04/08 00:22:25;;;;;;;;;;;10.50;99.90;;;;;;5100366;28;19916;-59
2023/04/08 00:24:51;;;;;;;;;;;10.50;99.90;;;;;;5100888;28;19908;-59
2023/04/08 00:27:17;;;;;;;;;;;10.50;99.90;;;;;;5100116;28;19920;-59
2023/04/08 00:29:42;;;;;;;;;;;10.50;99.90;;;;;;5100364;28;19914;-59
2023/04/08 00:32:08;;;;;;;;;;;10.40;99.90;;;;;;5100256;28;19908;-59
2023/04/08 00:34:33;;;;;;;;;;;10.40;99.90;;;;;;5100469;28;19957;-59
2023/04/08 00:37:00;;;;;;;;;;;10.30;99.90;;;;;;5100372;28;19936;-59
2023/04/08 00:39:25;;;;;;;;;;;10.30;99.90;;;;;;5099926;28;19930;-59
2023/04/08 00:41:51;;;;;;;;;;;10.20;99.90;;;;;;5100531;28;20283;-59
2023/04/08 00:44:16;;;;;;;;;;;10.20;99.90;;;;;;5100020;28;19915;-59
2023/04/08 00:46:42;;;;;;;;;;;10.20;99.90;;;;;;5100277;28;19912;-59
2023/04/08 00:49:08;;;;;;;;;;;10.10;99.90;;;;;;5100121;28;19908;-59
2023/04/08 00:51:35;;;;;;;;;;;10.10;99.90;;;;;;5100067;28;19909;-59
2023/04/08 00:54:03;;;;;;;;;;;10.10;99.90;;;;;;5100314;28;19947;-59
2023/04/08 00:56:30;;;;;;;;;;;10.00;99.90;;;;;;5099970;28;19914;-59
2023/04/08 00:58:56;;;;;;;;;;;10.00;99.90;;;;;;5099792;28;20011;-59
2023/04/08 01:01:24;;;;;;;;;;;9.90;99.90;;;;;;5099660;28;19947;-59
2023/04/08 01:03:59;;;;;;;;;;;9.90;99.90;;;;;;5081319;28;20371;-59
2023/04/08 01:06:31;;;;;;;;;;;9.80;99.90;;;;;;5099885;28;19912;-59
2023/04/08 01:08:59;;;;;;;;;;;9.80;99.90;;;;;;5099348;28;20324;-59
2023/04/08 01:11:26;;;;;;;;;;;9.70;99.90;;;;;;5099520;28;19930;-59
2023/04/08 01:13:54;;;;;;;;;;;9.70;99.90;;;;;;5099473;28;20393;-59
2023/04/08 01:16:20;;;;;;;;;;;9.80;99.90;;;;;;5099580;28;19908;-59
2023/04/08 01:18:47;;;;;;;;;;;9.70;99.90;;;;;;5099435;28;19909;-59
2023/04/08 01:21:14;;;;;;;;;;;9.70;99.90;;;;;;5099538;28;19916;-59
2023/04/08 01:23:50;;;;;;;;;;;9.70;99.90;;;;;;5099183;28;19948;-59
2023/04/08 01:26:21;;;;;;;;;;;9.70;99.90;;;;;;5098828;28;20026;-59
2023/04/08 01:28:47;;;;;;;;;;;9.60;99.90;;;;;;5099189;28;19998;-59
2023/04/08 01:31:14;;;;;;;;;;;9.60;99.90;;;;;;5099141;28;20318;-59
2023/04/08 01:33:40;;;;;;;;;;;9.60;99.90;;;;;;5099166;28;19908;-59
2023/04/08 01:36:06;;;;;;;;;;;9.50;99.90;;;;;;5099520;28;19908;-59
2023/04/08 01:38:32;;;;;;;;;;;9.60;99.90;;;;;;5099176;28;19936;-59
2023/04/08 01:40:58;;;;;;;;;;;9.50;99.90;;;;;;5098757;28;19979;-59
2023/04/08 01:43:25;;;;;;;;;;;9.50;99.90;;;;;;5099101;28;19915;-59
2023/04/08 01:45:53;;;;;;;;;;;9.50;99.90;;;;;;5098843;28;19916;-59
2023/04/08 01:48:19;;;;;;;;;;;9.50;99.90;;;;;;5099314;28;19916;-59
2023/04/08 01:50:45;;;;;;;;;;;9.50;99.90;;;;;;5098784;28;20007;-59
2023/04/08 01:53:11;;;;;;;;;;;9.40;99.90;;;;;;5099112;28;20411;-59
2023/04/08 01:55:38;;;;;;;;;;;9.40;99.90;;;;;;5098250;28;20350;-59
2023/04/08 01:58:05;;;;;;;;;;;9.40;99.90;;;;;;5099149;28;19908;-59
2023/04/08 02:00:31;;;;;;;;;;;9.40;99.90;;;;;;5098729;28;19914;-59
2023/04/08 02:02:58;;;;;;;;;;;9.30;99.90;;;;;;5099054;28;19908;-59
2023/04/08 02:05:23;;;;;;;;;;;9.40;99.90;;;;;;5098535;28;19909;-59
2023/04/08 02:07:49;;;;;;;;;;;9.40;99.90;;;;;;5098771;28;19908;-59
2023/04/08 02:10:15;;;;;;;;;;;9.40;99.90;;;;;;5098297;28;19984;-59
2023/04/08 02:12:41;;;;;;;;;;;9.40;99.90;;;;;;5098384;28;20362;-59
2023/04/08 02:15:07;;;;;;;;;;;9.30;99.90;;;;;;5098432;28;20381;-59
2023/04/08 02:17:53;;;;;;;;;;;9.30;99.90;;;;;;5098880;28;20271;-59
2023/04/08 02:20:18;;;;;;;;;;;9.20;99.90;;;;;;5097885;28;19915;-59
2023/04/08 02:22:50;;;;;;;;;;;9.30;99.90;;;;;;5098156;28;19912;-59
2023/04/08 02:25:20;;;;;;;;;;;9.20;99.90;;;;;;5098243;28;19941;-59
2023/04/08 02:27:48;;;;;;;;;;;9.00;99.90;;;;;;5098332;28;19915;-59
2023/04/08 02:30:14;;;;;;;;;;;9.20;99.90;;;;;;5098198;28;19908;-59
2023/04/08 02:32:40;;;;;;;;;;;9.10;99.90;;;;;;5098057;28;20279;-59
2023/04/08 02:35:07;;;;;;;;;;;9.10;99.90;;;;;;5098422;28;19908;-59
2023/04/08 02:37:32;;;;;;;;;;;9.10;99.90;;;;;;5098770;28;19934;-59
2023/04/08 02:39:58;;;;;;;;;;;9.10;99.90;;;;;;5098176;28;19908;-59
2023/04/08 02:42:24;;;;;;;;;;;9.10;99.90;;;;;;5098154;28;20378;-59
2023/04/08 02:44:50;;;;;;;;;;;9.20;99.90;;;;;;5098357;28;19908;-59
2023/04/08 02:47:16;;;;;;;;;;;9.10;99.90;;;;;;5098036;28;20276;-59
2023/04/08 02:49:41;;;;;;;;;;;9.10;99.90;;;;;;5098099;28;19915;-59
2023/04/08 02:52:07;;;;;;;;;;;9.10;99.90;;;;;;5098573;28;20299;-59
2023/04/08 02:54:33;;;;;;;;;;;9.20;99.90;;;;;;5098258;28;19908;-59
2023/04/08 02:56:58;;;;;;;;;;;9.40;99.90;;;;;;5098224;28;19919;-59
2023/04/08 02:59:24;;;;;;;;;;;9.10;99.90;;;;;;5098169;28;19912;-59
2023/04/08 03:01:49;;;;;;;;;;;9.10;99.90;;;;;;5098170;28;19915;-59
2023/04/08 03:04:15;;;;;;;;;;;9.10;99.90;;;;;;5097895;28;19908;-59
2023/04/08 03:06:41;;;;;;;;;;;9.20;99.90;;;;;;5098211;28;19912;-59
2023/04/08 03:09:06;;;;;;;;;;;9.20;99.90;;;;;;5100529;28;19961;-59
2023/04/08 03:11:32;;;;;;;;;;;9.20;99.90;;;;;;5101896;28;19908;-59
2023/04/08 03:13:57;;;;;;;;;;;9.20;99.90;;;;;;5101809;28;19948;-59
2023/04/08 03:16:23;;;;;;;;;;;9.10;99.90;;;;;;5101925;28;19938;-59
2023/04/08 03:18:50;;;;;;;;;;;9.10;99.90;;;;;;5101675;28;19908;-59
2023/04/08 03:21:15;;;;;;;;;;;9.20;99.90;;;;;;5101695;28;19915;-59
2023/04/08 03:23:41;;;;;;;;;;;9.10;99.90;;;;;;5101613;28;19908;-59
2023/04/08 03:26:07;;;;;;;;;;;9.10;99.90;;;;;;5101464;28;19920;-59
2023/04/08 03:28:32;;;;;;;;;;;9.10;99.90;;;;;;5101716;28;19908;-59
2023/04/08 03:30:59;;;;;;;;;;;9.10;99.90;;;;;;5101733;28;19908;-59
2023/04/08 03:33:25;;;;;;;;;;;9.20;99.90;;;;;;5101594;28;19961;-59
2023/04/08 03:35:52;;;;;;;;;;;9.20;99.90;;;;;;5101638;28;19912;-59
2023/04/08 03:38:17;;;;;;;;;;;9.10;99.90;;;;;;5101233;28;19909;-59
2023/04/08 03:40:43;;;;;;;;;;;9.10;99.90;;;;;;5101530;28;19914;-59
2023/04/08 03:43:10;;;;;;;;;;;9.10;99.90;;;;;;5101212;28;19915;-59
2023/04/08 03:45:36;;;;;;;;;;;9.10;99.90;;;;;;5100914;28;19955;-59
2023/04/08 03:48:02;;;;;;;;;;;9.10;99.90;;;;;;5101328;28;19915;-59
2023/04/08 03:50:27;;;;;;;;;;;9.20;99.90;;;;;;5101421;28;19935;-59
2023/04/08 03:52:53;;;;;;;;;;;9.10;99.90;;;;;;5101225;28;19908;-59
2023/04/08 03:55:18;;;;;;;;;;;9.00;99.90;;;;;;5100780;28;20007;-59
2023/04/08 03:57:44;;;;;;;;;;;9.10;99.90;;;;;;5100960;28;19947;-59
2023/04/08 04:00:10;;;;;;;;;;;9.10;99.90;;;;;;5100973;28;19915;-59
2023/04/08 04:02:36;;;;;;;;;;;9.10;99.90;;;;;;5100838;28;19908;-59
2023/04/08 04:05:01;;;;;;;;;;;9.10;99.90;;;;;;5100877;28;20287;-59
2023/04/08 04:07:27;;;;;;;;;;;9.00;99.90;;;;;;5101173;28;19916;-59
2023/04/08 04:09:55;;;;;;;;;;;8.90;99.90;;;;;;5100795;28;19995;-59
2023/04/08 04:12:20;;;;;;;;;;;9.00;99.90;;;;;;5100612;28;19915;-59
2023/04/08 04:14:46;;;;;;;;;;;9.10;99.90;;;;;;5100884;28;19910;-59
2023/04/08 04:17:11;;;;;;;;;;;9.00;99.90;;;;;;5100581;28;19955;-59
2023/04/08 04:19:37;;;;;;;;;;;9.00;99.90;;;;;;5100437;28;19946;-59
2023/04/08 04:22:03;;;;;;;;;;;9.00;99.90;;;;;;5082267;28;19972;-59
2023/04/08 04:24:28;;;;;;;;;;;9.00;99.90;;;;;;5100236;28;19909;-59
2023/04/08 04:26:54;;;;;;;;;;;9.10;99.90;;;;;;5100002;28;19924;-59
2023/04/08 04:29:19;;;;;;;;;;;9.20;99.90;;;;;;5100404;28;20398;-59
2023/04/08 04:31:45;;;;;;;;;;;9.10;99.90;;;;;;5100516;28;19915;-59
2023/04/08 04:34:11;;;;;;;;;;;9.10;99.90;;;;;;5100493;28;19908;-59
2023/04/08 04:36:36;;;;;;;;;;;9.10;99.90;;;;;;5100197;28;19962;-59
2023/04/08 04:39:02;;;;;;;;;;;9.10;99.90;;;;;;5100223;28;19917;-59
2023/04/08 04:41:28;;;;;;;;;;;9.10;99.90;;;;;;5100060;28;19915;-59
2023/04/08 04:43:53;;;;;;;;;;;9.10;99.90;;;;;;5100255;28;19908;-59
2023/04/08 04:46:19;;;;;;;;;;;9.10;99.90;;;;;;5099926;28;19966;-59
2023/04/08 04:48:44;;;;;;;;;;;9.00;99.90;;;;;;5100291;28;20294;-59
2023/04/08 04:51:10;;;;;;;;;;;9.00;99.90;;;;;;5099843;28;19915;-59
2023/04/08 04:53:35;;;;;;;;;;;9.10;99.90;;;;;;5100124;28;19915;-59
2023/04/08 04:56:01;;;;;;;;;;;9.00;99.90;;;;;;5100192;28;20299;-59
2023/04/08 04:58:27;;;;;;;;;;;8.90;99.90;;;;;;5099968;28;19915;-59
2023/04/08 05:00:53;;;;;;;;;;;9.10;99.90;;;;;;5099844;28;20363;-59
2023/04/08 05:03:18;;;;;;;;;;;9.00;99.90;;;;;;5099656;28;19915;-59
2023/04/08 05:05:44;;;;;;;;;;;8.90;99.90;;;;;;5099839;28;19999;-59
2023/04/08 05:08:10;;;;;;;;;;;8.90;99.90;;;;;;5099777;28;19982;-59
2023/04/08 05:10:35;;;;;;;;;;;8.90;99.90;;;;;;5099474;28;20516;-59
2023/04/08 05:13:01;;;;;;;;;;;8.90;99.90;;;;;;5099716;28;19908;-59
2023/04/08 05:15:26;;;;;;;;;;;8.90;99.90;;;;;;5099539;28;20427;-59
2023/04/08 05:17:52;;;;;;;;;;;8.90;99.90;;;;;;5099589;28;19908;-59
2023/04/08 05:20:18;;;;;;;;;;;8.90;99.90;;;;;;5099603;28;19954;-59
2023/04/08 05:22:44;;;;;;;;;;;8.90;99.90;;;;;;5099514;28;19908;-59
2023/04/08 05:25:10;;;;;;;;;;;8.80;99.90;;;;;;5098923;28;20268;-59
2023/04/08 05:27:36;;;;;;;;;;;8.80;99.90;;;;;;5099344;28;19912;-59
2023/04/08 05:30:01;;;;;;;;;;;8.80;99.90;;;;;;5099236;28;19909;-59
2023/04/08 05:32:28;;;;;;;;;;;8.80;99.90;;;;;;5098641;28;19970;-59
2023/04/08 05:34:54;;;;;;;;;;;8.80;99.90;;;;;;5099587;28;19908;-59
2023/04/08 05:37:19;;;;;;;;;;;8.80;99.90;;;;;;5098878;28;19951;-59
2023/04/08 05:39:45;;;;;;;;;;;8.80;99.90;;;;;;5099192;28;19908;-59
2023/04/08 05:42:12;;;;;;;;;;;8.70;99.90;;;;;;5098908;28;19908;-59
2023/04/08 05:44:40;;;;;;;;;;;8.80;99.90;;;;;;5098839;28;20515;-59
2023/04/08 05:47:05;;;;;;;;;;;8.80;99.90;;;;;;5099645;28;19912;-59
2023/04/08 05:49:32;;;;;;;;;;;8.80;99.90;;;;;;5099350;28;19915;-59
2023/04/08 05:51:57;;;;;;;;;;;8.80;99.90;;;;;;5099007;28;20299;-59
2023/04/08 05:54:23;;;;;;;;;;;8.80;99.90;;;;;;5098930;28;19937;-59
2023/04/08 05:56:49;;;;;;;;;;;8.80;99.90;;;;;;5098709;28;19916;-59
2023/04/08 05:59:14;;;;;;;;;;;8.80;99.90;;;;;;5080350;28;19919;-59
2023/04/08 06:01:40;;;;;;;;;;;8.70;99.90;;;;;;5099097;28;19915;-59
2023/04/08 06:04:05;;;;;;;;;;;8.70;99.90;;;;;;5098851;28;19908;-59
2023/04/08 06:06:31;;;;;;;;;;;8.80;99.90;;;;;;5098524;28;20444;-59
2023/04/08 06:08:57;;;;;;;;;;;8.80;99.90;;;;;;5098317;28;19908;-59
2023/04/08 06:11:22;;;;;;;;;;;8.80;99.90;;;;;;5098516;28;19999;-59
2023/04/08 06:13:48;;;;;;;;;;;8.80;99.90;;;;;;5098547;28;19908;-59
2023/04/08 06:16:14;;;;;;;;;;;8.90;99.90;;;;;;5098414;28;21090;-59
2023/04/08 06:18:40;;;;;;;;;;;8.90;99.90;;;;;;5098230;28;19908;-59
2023/04/08 06:21:06;;;;;;;;;;;8.80;99.90;;;;;;5098409;28;19916;-59
2023/04/08 06:23:31;;;;;;;;;;;8.80;99.90;;;;;;5098431;28;19955;-59
2023/04/08 06:25:57;;;;;;;;;;;8.90;99.90;;;;;;5098105;28;19920;-59
2023/04/08 06:28:23;;;;;;;;;;;9.00;99.90;;;;;;5098523;28;19908;-59
2023/04/08 06:30:49;;;;;;;;;;;8.90;99.90;;;;;;5098475;28;19908;-59
2023/04/08 06:33:14;;;;;;;;;;;8.90;99.90;;;;;;5098439;28;20015;-59
2023/04/08 06:35:40;;;;;;;;;;;9.00;99.90;;;;;;5098298;28;19908;-59
2023/04/08 06:38:06;;;;;;;;;;;9.00;99.90;;;;;;5098128;28;19908;-59
2023/04/08 06:40:31;;;;;;;;;;;9.00;99.90;;;;;;5098441;28;19958;-59
2023/04/08 06:42:57;;;;;;;;;;;9.10;99.90;;;;;;5100712;28;19967;-59
2023/04/08 06:45:23;;;;;;;;;;;9.10;99.90;;;;;;5102765;28;19908;-59
2023/04/08 06:47:48;;;;;;;;;;;9.10;99.90;;;;;;5102291;28;19908;-59
2023/04/08 06:50:14;;;;;;;;;;;9.20;99.90;;;;;;5102276;28;19908;-59
2023/04/08 06:52:40;;;;;;;;;;;9.20;99.90;;;;;;5102415;28;20321;-59
2023/04/08 06:55:06;;;;;;;;;;;9.30;99.90;;;;;;5102618;28;20274;-59
2023/04/08 06:57:31;;;;;;;;;;;9.30;99.90;;;;;;5101939;28;19908;-59
2023/04/08 06:59:57;;;;;;;;;;;9.40;99.90;;;;;;5102222;28;19908;-59
2023/04/08 07:02:23;;;;;;;;;;;9.40;99.90;;;;;;5102165;28;20930;-59
2023/04/08 07:04:48;;;;;;;;;;;9.50;99.90;;;;;;5101799;28;19908;-59
2023/04/08 07:07:14;;;;;;;;;;;9.50;99.90;;;;;;5102242;28;19912;-59
2023/04/08 07:09:42;;;;;;;;;;;9.60;99.90;;;;;;5102095;28;19908;-59
2023/04/08 07:12:07;;;;;;;;;;;9.60;99.90;;;;;;5083600;28;19908;-59
2023/04/08 07:14:33;;;;;;;;;;;9.70;99.90;;;;;;5101619;28;20015;-59
2023/04/08 07:16:59;;;;;;;;;;;9.70;99.90;;;;;;5101993;28;20010;-59
2023/04/08 07:19:24;;;;;;;;;;;9.80;99.90;;;;;;5101800;28;20366;-59
2023/04/08 07:21:51;;;;;;;;;;;9.70;99.90;;;;;;5101837;28;20436;-59
2023/04/08 07:24:17;;;;;;;;;;;9.80;99.90;;;;;;5101812;28;19908;-59
2023/04/08 07:26:43;;;;;;;;;;;10.00;99.90;;;;;;5101237;28;20433;-59
2023/04/08 07:29:09;;;;;;;;;;;9.90;99.90;;;;;;5101969;28;19908;-59
2023/04/08 07:31:34;;;;;;;;;;;10.00;99.90;;;;;;5101495;28;19916;-59
2023/04/08 07:34:00;;;;;;;;;;;10.00;99.90;;;;;;5102038;28;20006;-59
2023/04/08 07:36:26;;;;;;;;;;;10.10;99.90;;;;;;5101438;28;19908;-59
2023/04/08 07:38:52;;;;;;;;;;;10.10;99.90;;;;;;5101606;28;19909;-59
2023/04/08 07:41:18;;;;;;;;;;;10.10;99.90;;;;;;5101321;28;19915;-59
2023/04/08 07:43:44;;;;;;;;;;;10.30;99.90;;;;;;5101170;28;19930;-59
2023/04/08 07:46:09;;;;;;;;;;;10.20;99.90;;;;;;5101144;28;19912;-59
2023/04/08 07:48:35;;;;;;;;;;;10.30;99.90;;;;;;5101609;28;19912;-59
2023/04/08 07:51:04;;;;;;;;;;;10.30;99.90;;;;;;5101307;28;19908;-59
2023/04/08 07:53:30;;;;;;;;;;;10.30;99.90;;;;;;5100532;28;19915;-59
2023/04/08 07:55:56;;;;;;;;;;;10.30;99.90;;;;;;5101218;28;19908;-59
2023/04/08 07:58:22;;;;;;;;;;;10.50;99.90;;;;;;5101465;28;19943;-59
2023/04/08 08:00:48;;;;;;;;;;;10.50;99.90;;;;;;5100761;28;20287;-59
2023/04/08 08:03:13;;;;;;;;;;;10.50;99.90;;;;;;5101063;28;19909;-59
2023/04/08 08:05:39;;;;;;;;;;;10.60;99.90;;;;;;5100985;28;19908;-59
2023/04/08 08:08:06;;;;;;;;;;;10.70;99.90;;;;;;5100948;28;19912;-59
2023/04/08 08:10:32;;;;;;;;;;;10.70;99.90;;;;;;5100926;28;19916;-59
2023/04/08 08:12:58;;;;;;;;;;;10.80;99.90;;;;;;5100761;28;19909;-59
2023/04/08 08:15:23;;;;;;;;;;;11.00;99.90;;;;;;5101050;28;20443;-59
2023/04/08 08:17:49;;;;;;;;;;;10.90;99.90;;;;;;5100976;28;20283;-59
2023/04/08 08:20:15;;;;;;;;;;;10.90;99.90;;;;;;5100727;28;20003;-59
2023/04/08 08:22:41;;;;;;;;;;;11.00;99.90;;;;;;5100567;28;19908;-59
2023/04/08 08:25:08;;;;;;;;;;;11.10;99.90;;;;;;5100721;28;20308;-59
2023/04/08 08:27:34;;;;;;;;;;;11.20;99.90;;;;;;5100388;28;20012;-59
2023/04/08 08:29:59;;;;;;;;;;;11.20;99.90;;;;;;5100556;28;19912;-59
2023/04/08 08:32:25;;;;;;;;;;;11.30;99.90;;;;;;5100406;28;19912;-59
2023/04/08 08:34:51;;;;;;;;;;;11.40;99.90;;;;;;5100489;28;19934;-59
2023/04/08 08:37:16;;;;;;;;;;;11.40;99.90;;;;;;5100599;28;19908;-59
2023/04/08 08:39:42;;;;;;;;;;;11.50;99.90;;;;;;5100459;28;19951;-59
2023/04/08 08:42:17;;;;;;;;;;;11.60;99.90;;;;;;5100173;28;19914;-59
2023/04/08 08:44:43;;;;;;;;;;;11.70;99.90;;;;;;5100373;28;19950;-59
2023/04/08 08:47:08;;;;;;;;;;;11.80;99.90;;;;;;5099962;28;19912;-59
2023/04/08 08:49:34;;;;;;;;;;;11.80;99.90;;;;;;5099780;28;19908;-59
2023/04/08 08:52:00;;;;;;;;;;;12.00;99.90;;;;;;5099891;28;19996;-59
2023/04/08 08:54:26;;;;;;;;;;;12.00;99.90;;;;;;5100099;28;19915;-59
2023/04/08 08:56:51;;;;;;;;;;;11.90;99.90;;;;;;5100271;28;20432;-59
2023/04/08 08:59:17;;;;;;;;;;;12.20;99.90;;;;;;5099861;28;19919;-59
2023/04/08 09:01:43;;;;;;;;;;;12.30;99.90;;;;;;5099755;28;20320;-59
2023/04/08 09:04:08;;;;;;;;;;;12.40;99.90;;;;;;5100062;28;19915;-59
2023/04/08 09:06:35;;;;;;;;;;;12.40;99.90;;;;;;5098704;28;19916;-59
2023/04/08 09:09:01;;;;;;;;;;;12.60;99.90;;;;;;5099610;28;19908;-59
2023/04/08 09:11:27;;;;;;;;;;;12.80;99.90;;;;;;5099753;28;19908;-59
2023/04/08 09:13:52;;;;;;;;;;;12.80;99.90;;;;;;5099532;28;20654;-59
2023/04/08 09:16:18;;;;;;;;;;;12.80;99.90;;;;;;5099266;28;19908;-59
2023/04/08 09:18:45;;;;;;;;;;;12.90;99.90;;;;;;5099495;28;19951;-59
2023/04/08 09:21:12;;;;;;;;;;;13.10;99.90;;;;;;5099331;28;20013;-59
2023/04/08 09:23:39;;;;;;;;;;;13.20;99.90;;;;;;5099522;28;19952;-59
2023/04/08 09:26:08;;;;;;;;;;;13.30;99.90;;;;;;5099020;28;19920;-59
2023/04/08 09:28:33;;;;;;;;;;;13.40;99.90;;;;;;5099242;28;19931;-59
2023/04/08 09:30:59;;;;;;;;;;;13.30;99.90;;;;;;5099586;28;20383;-59
2023/04/08 09:33:31;;;;;;;;;;;13.60;99.90;;;;;;5099334;28;19913;-59
2023/04/08 09:35:57;;;;;;;;;;;13.70;99.90;;;;;;5099091;28;19954;-59
2023/04/08 09:38:22;;;;;;;;;;;13.80;99.90;;;;;;5099131;28;19908;-59
2023/04/08 09:40:49;;;;;;;;;;;14.00;99.90;;;;;;5099203;28;19915;-59
2023/04/08 09:43:17;;;;;;;;;;;14.10;99.90;;;;;;5098789;28;20378;-59
2023/04/08 09:45:45;;;;;;;;;;;14.10;99.90;;;;;;5098878;28;19908;-59
2023/04/08 09:48:17;;;;;;;;;;;14.30;99.90;;;;;;5098879;28;19930;-59
2023/04/08 09:50:44;;;;;;;;;;;14.30;99.90;;;;;;5099475;28;19930;-59
2023/04/08 09:53:18;;;;;;;;;;;14.50;99.90;;;;;;5098608;28;20295;-59
2023/04/08 09:55:46;;;;;;;;;;;14.50;99.90;;;;;;5098824;28;19908;-59
2023/04/08 09:58:15;;;;;;;;;;;14.60;99.90;;;;;;5098724;28;19958;-59
2023/04/08 10:00:49;;;;;;;;;;;14.70;99.90;;;;;;5099093;28;19957;-59
2023/04/08 10:03:14;;;;;;;;;;;14.70;99.90;;;;;;5098435;28;19931;-59
2023/04/08 10:05:41;;;;;;;;;;;14.80;99.90;;;;;;5098365;28;19908;-59
2023/04/08 10:08:06;;;;;;;;;;;14.90;99.90;;;;;;5098590;28;20371;-59
2023/04/08 10:10:37;;;;;;;;;;;14.90;99.90;;;;;;5098803;28;19931;-59
2023/04/08 10:13:03;;;;;;;;;;;15.10;99.90;;;;;;5098516;28;19986;-59
2023/04/08 10:15:30;;;;;;;;;;;15.20;99.90;;;;;;5098805;28;19943;-59
2023/04/08 10:18:19;;;;;;;;;;;15.20;99.90;;;;;;5098285;28;19951;-59
2023/04/08 10:20:45;;;;;;;;;;;15.30;99.90;;;;;;5098282;28;19948;-59
2023/04/08 10:23:12;;;;;;;;;;;15.40;98.70;;;;;;5098212;28;20434;-59
2023/04/08 10:25:47;;;;;;;;;;;15.60;99.10;;;;;;5098192;28;19924;-59
2023/04/08 10:28:17;;;;;;;;;;;15.50;99.80;;;;;;5097634;28;20139;-59
2023/04/08 10:30:50;;;;;;;;;;;15.70;99.40;;;;;;5098778;28;19969;-59
2023/04/08 10:33:18;;;;;;;;;;;15.80;99.60;;;;;;5098458;28;19912;-59
2023/04/08 10:35:47;;;;;;;;;;;15.90;99.40;;;;;;5098086;28;20355;-59
2023/04/08 10:38:13;;;;;;;;;;;16.00;99.60;;;;;;5098184;28;20103;-59
2023/04/08 10:40:40;;;;;;;;;;;16.10;99.90;;;;;;5098394;28;19915;-59
2023/04/08 10:43:06;;;;;;;;;;;16.20;99.90;;;;;;5098136;28;20280;-59
2023/04/08 10:45:32;;;;;;;;;;;16.30;99.90;;;;;;5097896;28;19999;-59
2023/04/08 10:48:17;;;;;;;;;;;16.40;96.60;;;;;;5098140;28;19908;-60
2023/04/08 10:50:53;;;;;;;;;;;16.50;99.90;;;;;;5098332;28;19912;-59
2023/04/08 10:53:29;;;;;;;;;;;16.60;99.90;;;;;;5097874;28;19908;-59
2023/04/08 10:56:02;;;;;;;;;;;16.80;99.90;;;;;;5098300;28;19908;-59
2023/04/08 10:58:29;;;;;;;;;;;16.80;99.90;;;;;;5098150;28;19985;-59
2023/04/08 11:00:54;;;;;;;;;;;16.90;92.40;;;;;;5098453;28;19908;-59
2023/04/08 11:03:21;;;;;;;;;;;16.90;97.10;;;;;;5098121;28;19914;-59
2023/04/08 11:05:47;;;;;;;;;;;17.00;94.00;;;;;;5098142;28;19916;-59
2023/04/08 11:08:13;;;;;;;;;;;16.90;96.20;;;;;;5098171;28;19966;-59
2023/04/08 11:10:39;;;;;;;;;;;17.10;96.30;;;;;;5098156;28;19908;-60
2023/04/08 11:13:06;;;;;;;;;;;17.10;98.10;;;;;;5097951;28;19912;-59
2023/04/08 11:15:32;;;;;;;;;;;17.10;95.50;;;;;;5097913;28;19908;-59
2023/04/08 11:17:58;;;;;;;;;;;17.20;99.70;;;;;;5097912;28;19912;-59
2023/04/08 11:20:23;;;;;;;;;;;17.30;98.60;;;;;;5098032;28;19908;-59
2023/04/08 11:22:49;;;;;;;;;;;17.20;97.80;;;;;;5098032;28;19930;-59
2023/04/08 11:25:14;;;;;;;;;;;17.30;97.80;;;;;;5098064;28;19982;-59
2023/04/08 11:27:40;;;;;;;;;;;17.40;97.20;;;;;;5097906;28;19916;-59
2023/04/08 11:30:06;;;;;;;;;;;17.40;94.40;;;;;;5100327;28;19908;-59
2023/04/08 11:32:33;;;;;;;;;;;17.50;97.50;;;;;;5101730;28;19908;-59
2023/04/08 11:35:00;;;;;;;;;;;17.40;97.70;;;;;;5101730;28;20260;-59
2023/04/08 11:37:26;;;;;;;;;;;17.60;96.20;;;;;;5101620;28;19912;-59
2023/04/08 11:39:53;;;;;;;;;;;17.60;92.80;;;;;;5101457;28;20414;-59
2023/04/08 11:42:26;;;;;;;;;;;17.80;91.80;;;;;;5101787;28;19923;-59
2023/04/08 11:44:51;;;;;;;;;;;17.90;91.50;;;;;;5101113;28;19912;-59
2023/04/08 11:47:17;;;;;;;;;;;18.00;94.50;;;;;;5101577;28;19919;-59
2023/04/08 11:49:43;;;;;;;;;;;18.10;93.40;;;;;;5101423;28;19957;-59
2023/04/08 11:52:09;;;;;;;;;;;18.20;90.80;;;;;;5101102;28;19909;-59
2023/04/08 11:54:39;;;;;;;;;;;18.40;91.40;;;;;;5101346;28;20017;-59
2023/04/08 11:57:05;;;;;;;;;;;18.50;87.10;;;;;;5101555;28;19908;-59
2023/04/08 11:59:31;;;;;;;;;;;18.70;90.70;;;;;;5101210;28;19908;-59
2023/04/08 12:01:57;;;;;;;;;;;18.80;86.40;;;;;;5101231;28;19930;-60
2023/04/08 12:04:23;;;;;;;;;;;18.90;90.90;;;;;;5100988;28;19915;-59
2023/04/08 12:06:49;;;;;;;;;;;19.00;86.30;;;;;;5101033;28;20279;-60
2023/04/08 12:09:14;;;;;;;;;;;19.10;81.80;;;;;;5100899;28;19908;-59
2023/04/08 12:11:41;;;;;;;;;;;19.10;81.80;;;;;;5100925;28;19986;-60
2023/04/08 12:14:07;;;;;;;;;;;19.20;83.50;;;;;;5100526;28;19954;-59
2023/04/08 12:16:32;;;;;;;;;;;19.30;87.90;;;;;;5100811;28;19916;-59
2023/04/08 12:18:58;;;;;;;;;;;19.30;83.30;;;;;;5100617;28;19998;-59
2023/04/08 12:21:24;;;;;;;;;;;19.40;87.40;;;;;;5100842;28;19908;-59
2023/04/08 12:23:50;;;;;;;;;;;19.50;87.90;;;;;;5100462;28;19908;-59
2023/04/08 12:26:16;;;;;;;;;;;19.60;78.70;;;;;;5100252;28;19927;-60
2023/04/08 12:28:42;;;;;;;;;;;19.70;85.10;;;;;;5100626;28;20367;-59
2023/04/08 12:31:07;;;;;;;;;;;19.80;77.60;;;;;;5100707;28;19915;-60
2023/04/08 12:33:33;;;;;;;;;;;19.90;88.30;;;;;;5100269;28;19912;-60
2023/04/08 12:35:58;;;;;;;;;;;20.00;81.60;;;;;;5100286;28;19939;-59
2023/04/08 12:38:25;;;;;;;;;;;20.10;81.90;;;;;;5100493;28;19909;-60
2023/04/08 12:40:50;;;;;;;;;;;20.20;81.30;;;;;;5098549;28;19953;-59
2023/04/08 12:43:16;;;;;;;;;;;20.30;84.20;;;;;;5100161;28;19908;-59
2023/04/08 12:45:42;;;;;;;;;;;20.30;78.30;;;;;;5099244;28;19931;-59
2023/04/08 12:48:07;;;;;;;;;;;20.20;72.70;;;;;;5100238;28;19908;-60
2023/04/08 12:50:33;;;;;;;;;;;20.40;77.00;;;;;;5100416;28;19943;-60
2023/04/08 12:52:59;;;;;;;;;;;20.50;81.80;;;;;;5100190;28;19954;-59
2023/04/08 12:55:25;;;;;;;;;;;20.50;75.10;;;;;;5099979;28;19908;-59
2023/04/08 12:57:51;;;;;;;;;;;20.60;77.10;;;;;;5099733;28;19947;-59
2023/04/08 13:00:17;;;;;;;;;;;20.70;75.10;;;;;;5099837;28;19914;-60
2023/04/08 13:02:43;;;;;;;;;;;20.70;72.50;;;;;;5099718;28;20355;-60
2023/04/08 13:05:09;;;;;;;;;;;20.80;76.50;;;;;;5099677;28;19915;-60
2023/04/08 13:07:34;;;;;;;;;;;20.90;77.70;;;;;;5100179;28;19912;-59
2023/04/08 13:10:00;;;;;;;;;;;20.90;77.70;;;;;;5099942;28;19929;-60
2023/04/08 13:12:26;;;;;;;;;;;21.00;73.30;;;;;;5099818;28;20275;-60
2023/04/08 13:14:51;;;;;;;;;;;21.10;77.10;;;;;;5099938;28;19912;-60
2023/04/08 13:17:17;;;;;;;;;;;21.20;78.80;;;;;;5099694;28;19908;-60
2023/04/08 13:19:43;;;;;;;;;;;21.20;74.00;;;;;;5099789;28;19908;-60
2023/04/08 13:22:08;;;;;;;;;;;21.40;73.90;;;;;;5099832;28;19974;-60
2023/04/08 13:24:34;;;;;;;;;;;21.40;75.70;;;;;;5099734;28;20321;-60
2023/04/08 13:27:00;;;;;;;;;;;21.40;73.40;;;;;;5098938;28;19920;-60
2023/04/08 13:29:27;;;;;;;;;;;21.50;73.00;;;;;;5099158;28;20018;-60
2023/04/08 13:31:52;;;;;;;;;;;21.50;69.30;;;;;;5099321;28;19916;-60
2023/04/08 13:34:18;;;;;;;;;;;21.50;73.80;;;;;;5099414;28;19908;-59
2023/04/08 13:36:44;;;;;;;;;;;21.60;73.30;;;;;;5099655;28;20374;-60
2023/04/08 13:39:09;;;;;;;;;;;21.60;69.90;;;;;;5099273;28;19908;-60
2023/04/08 13:41:35;;;;;;;;;;;21.60;71.30;;;;;;5099578;28;20333;-60
2023/04/08 13:44:00;;;;;;;;;;;21.70;72.40;;;;;;5099218;28;19909;-60
2023/04/08 13:46:26;;;;;;;;;;;21.60;70.00;;;;;;5099361;28;20351;-60
2023/04/08 13:48:52;;;;;;;;;;;21.80;70.90;;;;;;5099124;28;19957;-60
2023/04/08 13:51:17;;;;;;;;;;;21.80;69.70;;;;;;5098726;28;20417;-59
2023/04/08 13:53:43;;;;;;;;;;;21.70;68.10;;;;;;5098807;28;19908;-60
2023/04/08 13:56:08;;;;;;;;;;;21.80;67.20;;;;;;5099030;28;19954;-59
2023/04/08 13:58:34;;;;;;;;;;;21.80;69.20;;;;;;5099175;28;20357;-60
2023/04/08 14:00:59;;;;;;;;;;;21.80;68.50;;;;;;5099062;28;19908;-60
2023/04/08 14:03:25;;;;;;;;;;;21.90;69.40;;;;;;5098709;28;19912;-59
2023/04/08 14:05:51;;;;;;;;;;;21.70;68.00;;;;;;5098402;28;19918;-60
2023/04/08 14:08:23;;;;;;;;;;;21.80;71.10;;;;;;5098858;28;19908;-60
2023/04/08 14:10:50;;;;;;;;;;;21.90;67.30;;;;;;5098799;28;19972;-60
2023/04/08 14:13:16;;;;;;;;;;;21.70;67.40;;;;;;5098618;28;19912;-60
2023/04/08 14:15:41;;;;;;;;;;;21.70;67.50;;;;;;5098504;28;19916;-60
2023/04/08 14:18:07;;;;;;;;;;;21.60;65.10;;;;;;5098986;28;20351;-59